sensor_id;sensor_type;location;lat;lon;timestamp;P1;durP1;ratioP1;P2;durP2;ratioP2
8183;SDS011;4133;48.752;9.088;2022-07-29T00:01:07;4.25;;;3.78;;
8183;SDS011;4133;48.752;9.088;2022-07-29T00:03:33;4.45;;;4.05;;
8183;SDS011;4133;48.752;9.088;2022-07-29T00:05:59;5.03;;;3.90;;
8183;SDS011;4133;48.752;9.088;2022-07-29T00:08:25;4.05;;;3.72;;
8183;SDS011;4133;48.752;9.088;2022-07-29T00:10:51;678.85;;;138.27;;
8183;SDS011;4133;48.752;9.088;2022-07-29T00:13:17;60.13;;;7.38;;
8183;SDS011;4133;48.752;9.088;2022-07-29T00:15:43;1999.90;;;999.90;;
8183;SDS011;4133;48.752;9.088;2022-07-29T00:18:09;4.03;;;3.60;;
8183;SDS011;4133;48.752;9.088;2022-07-29T00:20:35;3.95;;;3.63;;
8183;SDS011;4133;48.752;9.088;2022-07-29T00:23:01;4.50;;;3.95;;
8183;SDS011;4133;48.752;9.088;2022-07-29T00:25:27;5.47;;;3.90;;
8183;SDS011;4133;48.752;9.088;2022-07-29T00:27:53;4.40;;;4.00;;
8183;SDS011;4133;48.752;9.088;2022-07-29T00:30:19;5.03;;;3.75;;
8183;SDS011;4133;48.752;9.088;2022-07-29T00:32:45;4.38;;;3.67;;
8183;SDS011;4133;48.752;9.088;2022-07-29T00:35:11;3.83;;;3.53;;
8183;SDS011;4133;48.752;9.088;2022-07-29T00:37:56;4.32;;;3.55;;
8183;SDS011;4133;48.752;9.088;2022-07-29T00:40:22;3.97;;;3.58;;
8183;SDS011;4133;48.752;9.088;2022-07-29T00:42:48;3.47;;;3.10;;
8183;SDS011;4133;48.752;9.088;2022-07-29T00:45:15;3.20;;;2.90;;
8183;SDS011;4133;48.752;9.088;2022-07-29T00:47:41;3.95;;;3.35;;
8183;SDS011;4133;48.752;9.088;2022-07-29T00:50:08;6.20;;;3.70;;
8183;SDS011;4133;48.752;9.088;2022-07-29T00:52:35;3.50;;;3.20;;
8183;SDS011;4133;48.752;9.088;2022-07-29T00:55:02;6.43;;;3.85;;
8183;SDS011;4133;48.752;9.088;2022-07-29T00:57:29;3.63;;;3.38;;
8183;SDS011;4133;48.752;9.088;2022-07-29T00:59:55;3.80;;;3.50;;
8183;SDS011;4133;48.752;9.088;2022-07-29T01:02:21;4.07;;;3.78;;
8183;SDS011;4133;48.752;9.088;2022-07-29T01:04:47;3.70;;;3.40;;
8183;SDS011;4133;48.752;9.088;2022-07-29T01:07:13;3.63;;;3.33;;
8183;SDS011;4133;48.752;9.088;2022-07-29T01:09:39;4.40;;;3.40;;
8183;SDS011;4133;48.752;9.088;2022-07-29T01:12:06;3.85;;;3.45;;
8183;SDS011;4133;48.752;9.088;2022-07-29T01:14:32;4.00;;;3.30;;
8183;SDS011;4133;48.752;9.088;2022-07-29T01:17:10;4.07;;;3.30;;
8183;SDS011;4133;48.752;9.088;2022-07-29T01:19:56;443.35;;;56.47;;
8183;SDS011;4133;48.752;9.088;2022-07-29T01:25:10;3.60;;;3.30;;
8183;SDS011;4133;48.752;9.088;2022-07-29T01:27:41;4.93;;;3.20;;
8183;SDS011;4133;48.752;9.088;2022-07-29T01:30:10;4.97;;;3.67;;
8183;SDS011;4133;48.752;9.088;2022-07-29T01:32:37;4.55;;;3.53;;
8183;SDS011;4133;48.752;9.088;2022-07-29T01:35:05;4.03;;;3.10;;
8183;SDS011;4133;48.752;9.088;2022-07-29T01:37:34;4.55;;;3.42;;
8183;SDS011;4133;48.752;9.088;2022-07-29T01:40:04;4.18;;;3.70;;
8183;SDS011;4133;48.752;9.088;2022-07-29T01:42:34;3.88;;;3.15;;
8183;SDS011;4133;48.752;9.088;2022-07-29T01:45:11;3.55;;;3.25;;
8183;SDS011;4133;48.752;9.088;2022-07-29T01:48:00;4.97;;;3.80;;
8183;SDS011;4133;48.752;9.088;2022-07-29T01:50:26;5.40;;;3.30;;
8183;SDS011;4133;48.752;9.088;2022-07-29T01:52:56;3.53;;;3.22;;
8183;SDS011;4133;48.752;9.088;2022-07-29T01:55:22;3.35;;;2.83;;
8183;SDS011;4133;48.752;9.088;2022-07-29T01:57:50;3.33;;;3.03;;
8183;SDS011;4133;48.752;9.088;2022-07-29T02:00:17;3.25;;;2.95;;
8183;SDS011;4133;48.752;9.088;2022-07-29T02:02:44;3.13;;;2.83;;
8183;SDS011;4133;48.752;9.088;2022-07-29T02:05:12;3.15;;;2.85;;
8183;SDS011;4133;48.752;9.088;2022-07-29T02:07:40;3.55;;;3.00;;
8183;SDS011;4133;48.752;9.088;2022-07-29T02:10:06;4.32;;;3.38;;
8183;SDS011;4133;48.752;9.088;2022-07-29T02:12:33;3.20;;;2.90;;
8183;SDS011;4133;48.752;9.088;2022-07-29T02:15:01;4.00;;;3.50;;
8183;SDS011;4133;48.752;9.088;2022-07-29T02:17:29;3.70;;;3.25;;
8183;SDS011;4133;48.752;9.088;2022-07-29T02:19:57;3.33;;;2.97;;
8183;SDS011;4133;48.752;9.088;2022-07-29T02:22:24;4.85;;;3.00;;
8183;SDS011;4133;48.752;9.088;2022-07-29T02:24:52;3.00;;;2.80;;
8183;SDS011;4133;48.752;9.088;2022-07-29T02:27:18;3.10;;;2.90;;
8183;SDS011;4133;48.752;9.088;2022-07-29T02:29:45;4.72;;;3.33;;
8183;SDS011;4133;48.752;9.088;2022-07-29T02:32:12;5.38;;;3.03;;
8183;SDS011;4133;48.752;9.088;2022-07-29T02:34:39;7.30;;;3.08;;
8183;SDS011;4133;48.752;9.088;2022-07-29T02:37:07;3.38;;;2.90;;
8183;SDS011;4133;48.752;9.088;2022-07-29T02:39:34;3.40;;;3.10;;
8183;SDS011;4133;48.752;9.088;2022-07-29T02:42:05;3.40;;;3.10;;
8183;SDS011;4133;48.752;9.088;2022-07-29T02:44:32;3.53;;;2.90;;
8183;SDS011;4133;48.752;9.088;2022-07-29T02:49:36;3.35;;;2.90;;
8183;SDS011;4133;48.752;9.088;2022-07-29T02:52:04;3.42;;;3.08;;
8183;SDS011;4133;48.752;9.088;2022-07-29T02:55:10;3.38;;;3.08;;
8183;SDS011;4133;48.752;9.088;2022-07-29T02:57:29;2.92;;;2.72;;
8183;SDS011;4133;48.752;9.088;2022-07-29T02:59:58;3.08;;;2.88;;
8183;SDS011;4133;48.752;9.088;2022-07-29T03:02:28;4.50;;;3.00;;
8183;SDS011;4133;48.752;9.088;2022-07-29T03:04:57;2.95;;;2.72;;
8183;SDS011;4133;48.752;9.088;2022-07-29T03:07:23;3.58;;;3.05;;
8183;SDS011;4133;48.752;9.088;2022-07-29T03:09:50;4.72;;;2.88;;
8183;SDS011;4133;48.752;9.088;2022-07-29T03:12:16;5.90;;;2.97;;
8183;SDS011;4133;48.752;9.088;2022-07-29T03:14:43;3.10;;;2.80;;
8183;SDS011;4133;48.752;9.088;2022-07-29T03:17:09;5.03;;;3.33;;
8183;SDS011;4133;48.752;9.088;2022-07-29T03:19:35;3.13;;;2.83;;
8183;SDS011;4133;48.752;9.088;2022-07-29T03:22:02;3.30;;;2.97;;
8183;SDS011;4133;48.752;9.088;2022-07-29T03:24:29;3.38;;;3.03;;
8183;SDS011;4133;48.752;9.088;2022-07-29T03:26:55;6.75;;;2.97;;
8183;SDS011;4133;48.752;9.088;2022-07-29T03:29:22;3.05;;;2.70;;
8183;SDS011;4133;48.752;9.088;2022-07-29T03:31:49;4.38;;;3.13;;
8183;SDS011;4133;48.752;9.088;2022-07-29T03:34:15;4.70;;;3.30;;
8183;SDS011;4133;48.752;9.088;2022-07-29T03:36:41;3.45;;;3.15;;
8183;SDS011;4133;48.752;9.088;2022-07-29T03:39:07;3.38;;;3.08;;
8183;SDS011;4133;48.752;9.088;2022-07-29T03:41:33;3.60;;;3.17;;
8183;SDS011;4133;48.752;9.088;2022-07-29T03:43:59;3.30;;;3.00;;
8183;SDS011;4133;48.752;9.088;2022-07-29T03:46:26;3.25;;;2.92;;
8183;SDS011;4133;48.752;9.088;2022-07-29T03:48:55;401.85;;;30.27;;
8183;SDS011;4133;48.752;9.088;2022-07-29T03:51:23;3.42;;;2.60;;
8183;SDS011;4133;48.752;9.088;2022-07-29T03:53:49;80.88;;;25.13;;
8183;SDS011;4133;48.752;9.088;2022-07-29T03:56:15;468.52;;;26.85;;
8183;SDS011;4133;48.752;9.088;2022-07-29T03:58:42;75.90;;;70.93;;
8183;SDS011;4133;48.752;9.088;2022-07-29T04:01:09;102.45;;;26.42;;
8183;SDS011;4133;48.752;9.088;2022-07-29T04:03:36;9.73;;;8.90;;
8183;SDS011;4133;48.752;9.088;2022-07-29T04:06:04;3.28;;;2.97;;
8183;SDS011;4133;48.752;9.088;2022-07-29T04:08:33;3.58;;;3.28;;
8183;SDS011;4133;48.752;9.088;2022-07-29T04:11:00;3.95;;;3.05;;
8183;SDS011;4133;48.752;9.088;2022-07-29T04:13:26;3.45;;;3.15;;
8183;SDS011;4133;48.752;9.088;2022-07-29T04:15:52;4.40;;;3.33;;
8183;SDS011;4133;48.752;9.088;2022-07-29T04:18:18;3.67;;;3.40;;
8183;SDS011;4133;48.752;9.088;2022-07-29T04:20:44;3.85;;;3.42;;
8183;SDS011;4133;48.752;9.088;2022-07-29T04:23:11;4.13;;;3.38;;
8183;SDS011;4133;48.752;9.088;2022-07-29T04:25:37;298.67;;;28.10;;
8183;SDS011;4133;48.752;9.088;2022-07-29T04:28:04;334.67;;;83.38;;
8183;SDS011;4133;48.752;9.088;2022-07-29T04:30:30;766.03;;;118.40;;
8183;SDS011;4133;48.752;9.088;2022-07-29T04:32:57;346.25;;;37.47;;
8183;SDS011;4133;48.752;9.088;2022-07-29T04:35:23;1999.90;;;999.90;;
8183;SDS011;4133;48.752;9.088;2022-07-29T04:37:49;467.80;;;37.78;;
8183;SDS011;4133;48.752;9.088;2022-07-29T04:40:15;94.70;;;76.45;;
8183;SDS011;4133;48.752;9.088;2022-07-29T04:42:41;1999.90;;;999.90;;
8183;SDS011;4133;48.752;9.088;2022-07-29T04:45:07;1999.90;;;999.90;;
8183;SDS011;4133;48.752;9.088;2022-07-29T04:47:33;1510.28;;;759.47;;
8183;SDS011;4133;48.752;9.088;2022-07-29T04:49:59;121.70;;;115.20;;
8183;SDS011;4133;48.752;9.088;2022-07-29T04:52:26;122.75;;;116.32;;
8183;SDS011;4133;48.752;9.088;2022-07-29T04:54:52;110.15;;;104.32;;
8183;SDS011;4133;48.752;9.088;2022-07-29T04:57:18;30.42;;;28.67;;
8183;SDS011;4133;48.752;9.088;2022-07-29T04:59:44;15.18;;;14.05;;
8183;SDS011;4133;48.752;9.088;2022-07-29T05:02:10;7.25;;;5.05;;
8183;SDS011;4133;48.752;9.088;2022-07-29T05:04:36;6.20;;;5.60;;
8183;SDS011;4133;48.752;9.088;2022-07-29T05:07:02;4.20;;;3.95;;
8183;SDS011;4133;48.752;9.088;2022-07-29T05:09:28;4.40;;;4.00;;
8183;SDS011;4133;48.752;9.088;2022-07-29T05:11:54;34.13;;;32.28;;
8183;SDS011;4133;48.752;9.088;2022-07-29T05:14:20;186.80;;;176.85;;
8183;SDS011;4133;48.752;9.088;2022-07-29T05:16:46;1999.90;;;999.90;;
8183;SDS011;4133;48.752;9.088;2022-07-29T05:19:13;1999.90;;;999.90;;
8183;SDS011;4133;48.752;9.088;2022-07-29T05:21:39;1999.90;;;999.90;;
8183;SDS011;4133;48.752;9.088;2022-07-29T05:24:05;1999.90;;;999.90;;
8183;SDS011;4133;48.752;9.088;2022-07-29T05:26:31;1999.90;;;999.90;;
8183;SDS011;4133;48.752;9.088;2022-07-29T05:28:57;1999.90;;;999.90;;
8183;SDS011;4133;48.752;9.088;2022-07-29T05:31:23;1999.90;;;999.90;;
8183;SDS011;4133;48.752;9.088;2022-07-29T05:33:49;1999.90;;;999.90;;
8183;SDS011;4133;48.752;9.088;2022-07-29T05:36:15;1156.93;;;247.60;;
8183;SDS011;4133;48.752;9.088;2022-07-29T05:38:41;137.70;;;122.70;;
8183;SDS011;4133;48.752;9.088;2022-07-29T05:41:07;2.40;;;2.20;;
8183;SDS011;4133;48.752;9.088;2022-07-29T05:43:33;2.38;;;2.17;;
8183;SDS011;4133;48.752;9.088;2022-07-29T05:45:59;3.22;;;2.92;;
8183;SDS011;4133;48.752;9.088;2022-07-29T05:48:25;4.03;;;3.58;;
8183;SDS011;4133;48.752;9.088;2022-07-29T05:50:51;3.60;;;3.30;;
8183;SDS011;4133;48.752;9.088;2022-07-29T05:53:17;7.80;;;7.18;;
8183;SDS011;4133;48.752;9.088;2022-07-29T05:55:43;4.53;;;2.10;;
8183;SDS011;4133;48.752;9.088;2022-07-29T05:58:09;3.80;;;2.17;;
8183;SDS011;4133;48.752;9.088;2022-07-29T06:00:35;8.35;;;2.08;;
8183;SDS011;4133;48.752;9.088;2022-07-29T06:03:01;2.58;;;2.38;;
8183;SDS011;4133;48.752;9.088;2022-07-29T06:05:27;3.33;;;2.15;;
8183;SDS011;4133;48.752;9.088;2022-07-29T06:07:53;2.40;;;2.10;;
8183;SDS011;4133;48.752;9.088;2022-07-29T06:10:19;191.38;;;36.80;;
8183;SDS011;4133;48.752;9.088;2022-07-29T06:12:45;1182.85;;;283.42;;
8183;SDS011;4133;48.752;9.088;2022-07-29T06:15:11;3.67;;;2.65;;
8183;SDS011;4133;48.752;9.088;2022-07-29T06:17:37;433.90;;;34.75;;
8183;SDS011;4133;48.752;9.088;2022-07-29T06:20:03;966.88;;;136.90;;
8183;SDS011;4133;48.752;9.088;2022-07-29T06:22:29;669.83;;;133.00;;
8183;SDS011;4133;48.752;9.088;2022-07-29T06:24:55;255.00;;;74.28;;
8183;SDS011;4133;48.752;9.088;2022-07-29T06:27:21;37.30;;;35.10;;
8183;SDS011;4133;48.752;9.088;2022-07-29T06:29:47;41.15;;;38.55;;
8183;SDS011;4133;48.752;9.088;2022-07-29T06:32:13;7.40;;;6.90;;
8183;SDS011;4133;48.752;9.088;2022-07-29T06:34:39;65.85;;;26.65;;
8183;SDS011;4133;48.752;9.088;2022-07-29T06:37:06;26.77;;;24.98;;
8183;SDS011;4133;48.752;9.088;2022-07-29T06:39:36;1999.90;;;999.90;;
8183;SDS011;4133;48.752;9.088;2022-07-29T06:42:03;1999.90;;;999.90;;
8183;SDS011;4133;48.752;9.088;2022-07-29T06:44:29;122.80;;;22.17;;
8183;SDS011;4133;48.752;9.088;2022-07-29T06:46:55;740.08;;;138.57;;
8183;SDS011;4133;48.752;9.088;2022-07-29T06:49:22;62.22;;;43.78;;
8183;SDS011;4133;48.752;9.088;2022-07-29T06:54:52;4.43;;;4.07;;
8183;SDS011;4133;48.752;9.088;2022-07-29T06:57:19;6.75;;;6.15;;
8183;SDS011;4133;48.752;9.088;2022-07-29T06:59:46;3.55;;;2.55;;
8183;SDS011;4133;48.752;9.088;2022-07-29T07:02:12;4.72;;;4.25;;
8183;SDS011;4133;48.752;9.088;2022-07-29T07:04:38;6.43;;;5.90;;
8183;SDS011;4133;48.752;9.088;2022-07-29T07:07:04;9.88;;;8.88;;
8183;SDS011;4133;48.752;9.088;2022-07-29T07:09:30;4.38;;;2.42;;
8183;SDS011;4133;48.752;9.088;2022-07-29T07:11:56;2.50;;;2.30;;
8183;SDS011;4133;48.752;9.088;2022-07-29T07:14:22;5.07;;;4.55;;
8183;SDS011;4133;48.752;9.088;2022-07-29T07:16:48;3.10;;;2.60;;
8183;SDS011;4133;48.752;9.088;2022-07-29T07:19:14;4.60;;;2.75;;
8183;SDS011;4133;48.752;9.088;2022-07-29T07:21:40;2.60;;;2.20;;
8183;SDS011;4133;48.752;9.088;2022-07-29T07:24:06;4.00;;;2.40;;
8183;SDS011;4133;48.752;9.088;2022-07-29T07:26:33;2.35;;;2.15;;
8183;SDS011;4133;48.752;9.088;2022-07-29T07:28:59;4.60;;;2.53;;
8183;SDS011;4133;48.752;9.088;2022-07-29T07:31:25;4.63;;;2.47;;
8183;SDS011;4133;48.752;9.088;2022-07-29T07:33:51;73.15;;;36.88;;
8183;SDS011;4133;48.752;9.088;2022-07-29T07:36:18;3.60;;;2.50;;
8183;SDS011;4133;48.752;9.088;2022-07-29T07:38:44;3.40;;;2.80;;
8183;SDS011;4133;48.752;9.088;2022-07-29T07:41:10;4.18;;;2.47;;
8183;SDS011;4133;48.752;9.088;2022-07-29T07:43:36;4.30;;;2.60;;
8183;SDS011;4133;48.752;9.088;2022-07-29T07:46:03;23.77;;;16.15;;
8183;SDS011;4133;48.752;9.088;2022-07-29T07:48:29;4.82;;;2.67;;
8183;SDS011;4133;48.752;9.088;2022-07-29T07:50:55;5.60;;;2.60;;
8183;SDS011;4133;48.752;9.088;2022-07-29T07:53:21;3.70;;;2.60;;
8183;SDS011;4133;48.752;9.088;2022-07-29T07:55:48;3.88;;;2.42;;
8183;SDS011;4133;48.752;9.088;2022-07-29T07:58:14;2.55;;;2.35;;
8183;SDS011;4133;48.752;9.088;2022-07-29T08:00:40;3.08;;;2.72;;
8183;SDS011;4133;48.752;9.088;2022-07-29T08:03:06;3.95;;;3.10;;
8183;SDS011;4133;48.752;9.088;2022-07-29T08:05:33;5.75;;;3.53;;
8183;SDS011;4133;48.752;9.088;2022-07-29T08:08:01;3.28;;;2.63;;
8183;SDS011;4133;48.752;9.088;2022-07-29T08:10:27;5.72;;;2.45;;
8183;SDS011;4133;48.752;9.088;2022-07-29T08:13:11;4.97;;;2.30;;
8183;SDS011;4133;48.752;9.088;2022-07-29T08:15:38;3.70;;;2.90;;
8183;SDS011;4133;48.752;9.088;2022-07-29T08:18:04;3.17;;;2.28;;
8183;SDS011;4133;48.752;9.088;2022-07-29T08:20:48;3.93;;;2.43;;
8183;SDS011;4133;48.752;9.088;2022-07-29T08:23:17;3.92;;;2.75;;
8183;SDS011;4133;48.752;9.088;2022-07-29T08:25:44;3.28;;;2.47;;
8183;SDS011;4133;48.752;9.088;2022-07-29T08:28:10;3.63;;;2.50;;
8183;SDS011;4133;48.752;9.088;2022-07-29T08:30:36;2.95;;;2.50;;
8183;SDS011;4133;48.752;9.088;2022-07-29T08:33:02;3.28;;;2.40;;
8183;SDS011;4133;48.752;9.088;2022-07-29T08:35:28;4.00;;;2.60;;
8183;SDS011;4133;48.752;9.088;2022-07-29T08:37:54;3.30;;;2.42;;
8183;SDS011;4133;48.752;9.088;2022-07-29T08:40:21;5.60;;;2.65;;
8183;SDS011;4133;48.752;9.088;2022-07-29T08:42:49;3.28;;;2.60;;
8183;SDS011;4133;48.752;9.088;2022-07-29T08:45:15;3.53;;;2.75;;
8183;SDS011;4133;48.752;9.088;2022-07-29T08:47:41;3.15;;;2.42;;
8183;SDS011;4133;48.752;9.088;2022-07-29T08:50:09;4.22;;;2.60;;
8183;SDS011;4133;48.752;9.088;2022-07-29T08:52:36;3.60;;;3.00;;
8183;SDS011;4133;48.752;9.088;2022-07-29T08:55:02;3.45;;;2.80;;
8183;SDS011;4133;48.752;9.088;2022-07-29T08:57:29;2.83;;;2.58;;
8183;SDS011;4133;48.752;9.088;2022-07-29T08:59:55;4.22;;;2.70;;
8183;SDS011;4133;48.752;9.088;2022-07-29T09:02:23;6.63;;;2.67;;
8183;SDS011;4133;48.752;9.088;2022-07-29T09:04:50;5.82;;;2.50;;
8183;SDS011;4133;48.752;9.088;2022-07-29T09:07:17;9.13;;;2.85;;
8183;SDS011;4133;48.752;9.088;2022-07-29T09:09:43;4.05;;;2.33;;
8183;SDS011;4133;48.752;9.088;2022-07-29T09:12:10;5.68;;;2.40;;
8183;SDS011;4133;48.752;9.088;2022-07-29T09:14:37;4.70;;;2.75;;
8183;SDS011;4133;48.752;9.088;2022-07-29T09:17:03;6.68;;;2.70;;
8183;SDS011;4133;48.752;9.088;2022-07-29T09:19:30;8.15;;;2.65;;
8183;SDS011;4133;48.752;9.088;2022-07-29T09:21:57;8.30;;;3.08;;
8183;SDS011;4133;48.752;9.088;2022-07-29T09:24:24;4.47;;;2.42;;
8183;SDS011;4133;48.752;9.088;2022-07-29T09:26:51;3.95;;;2.97;;
8183;SDS011;4133;48.752;9.088;2022-07-29T09:29:20;5.10;;;2.78;;
8183;SDS011;4133;48.752;9.088;2022-07-29T09:31:48;6.03;;;2.63;;
8183;SDS011;4133;48.752;9.088;2022-07-29T09:34:24;4.80;;;2.33;;
8183;SDS011;4133;48.752;9.088;2022-07-29T09:36:51;5.30;;;2.80;;
8183;SDS011;4133;48.752;9.088;2022-07-29T09:39:31;4.32;;;2.67;;
8183;SDS011;4133;48.752;9.088;2022-07-29T09:41:58;4.35;;;2.63;;
8183;SDS011;4133;48.752;9.088;2022-07-29T09:44:25;4.18;;;2.70;;
8183;SDS011;4133;48.752;9.088;2022-07-29T09:46:59;2.50;;;2.30;;
8183;SDS011;4133;48.752;9.088;2022-07-29T09:49:35;3.38;;;2.50;;
8183;SDS011;4133;48.752;9.088;2022-07-29T09:55:04;9.05;;;2.65;;
8183;SDS011;4133;48.752;9.088;2022-07-29T09:57:30;5.97;;;2.63;;
8183;SDS011;4133;48.752;9.088;2022-07-29T09:59:57;3.72;;;2.50;;
8183;SDS011;4133;48.752;9.088;2022-07-29T10:02:24;6.38;;;3.10;;
8183;SDS011;4133;48.752;9.088;2022-07-29T10:04:53;3.50;;;2.30;;
8183;SDS011;4133;48.752;9.088;2022-07-29T10:07:19;5.85;;;2.88;;
8183;SDS011;4133;48.752;9.088;2022-07-29T10:09:55;2.95;;;2.45;;
8183;SDS011;4133;48.752;9.088;2022-07-29T10:12:21;2.80;;;2.50;;
8183;SDS011;4133;48.752;9.088;2022-07-29T10:14:47;3.38;;;2.60;;
8183;SDS011;4133;48.752;9.088;2022-07-29T10:17:14;4.07;;;2.80;;
8183;SDS011;4133;48.752;9.088;2022-07-29T10:19:41;6.40;;;2.85;;
8183;SDS011;4133;48.752;9.088;2022-07-29T10:22:08;4.20;;;2.40;;
8183;SDS011;4133;48.752;9.088;2022-07-29T10:24:35;4.82;;;2.92;;
8183;SDS011;4133;48.752;9.088;2022-07-29T10:27:02;4.38;;;2.60;;
8183;SDS011;4133;48.752;9.088;2022-07-29T10:29:29;4.93;;;2.92;;
8183;SDS011;4133;48.752;9.088;2022-07-29T10:34:35;6.72;;;3.10;;
8183;SDS011;4133;48.752;9.088;2022-07-29T10:42:17;9.30;;;3.30;;
8183;SDS011;4133;48.752;9.088;2022-07-29T10:44:43;6.95;;;3.10;;
8183;SDS011;4133;48.752;9.088;2022-07-29T10:47:20;3.78;;;3.20;;
8183;SDS011;4133;48.752;9.088;2022-07-29T10:50:01;7.50;;;3.78;;
8183;SDS011;4133;48.752;9.088;2022-07-29T11:00:39;7.43;;;4.22;;
8183;SDS011;4133;48.752;9.088;2022-07-29T11:03:05;10.20;;;5.22;;
8183;SDS011;4133;48.752;9.088;2022-07-29T11:05:50;9.00;;;5.10;;
8183;SDS011;4133;48.752;9.088;2022-07-29T11:08:17;11.65;;;5.32;;
8183;SDS011;4133;48.752;9.088;2022-07-29T11:10:49;28.15;;;9.60;;
8183;SDS011;4133;48.752;9.088;2022-07-29T11:16:15;1999.90;;;999.90;;
8183;SDS011;4133;48.752;9.088;2022-07-29T11:21:35;10.38;;;6.55;;
8183;SDS011;4133;48.752;9.088;2022-07-29T11:24:12;11.25;;;7.38;;
8183;SDS011;4133;48.752;9.088;2022-07-29T11:26:38;11.85;;;7.80;;
8183;SDS011;4133;48.752;9.088;2022-07-29T11:29:20;9.70;;;7.68;;
8183;SDS011;4133;48.752;9.088;2022-07-29T11:31:48;11.30;;;8.38;;
8183;SDS011;4133;48.752;9.088;2022-07-29T11:34:34;8.60;;;7.43;;
8183;SDS011;4133;48.752;9.088;2022-07-29T11:39:46;11.02;;;7.07;;
8183;SDS011;4133;48.752;9.088;2022-07-29T11:44:58;214.90;;;15.13;;
8183;SDS011;4133;48.752;9.088;2022-07-29T11:47:25;242.13;;;22.55;;
8183;SDS011;4133;48.752;9.088;2022-07-29T11:49:52;12.23;;;8.70;;
8183;SDS011;4133;48.752;9.088;2022-07-29T11:52:19;8.60;;;7.63;;
8183;SDS011;4133;48.752;9.088;2022-07-29T11:54:46;11.73;;;8.18;;
8183;SDS011;4133;48.752;9.088;2022-07-29T11:57:13;12.15;;;7.72;;
8183;SDS011;4133;48.752;9.088;2022-07-29T11:59:41;11.95;;;7.72;;
8183;SDS011;4133;48.752;9.088;2022-07-29T12:02:07;11.30;;;7.97;;
8183;SDS011;4133;48.752;9.088;2022-07-29T12:04:34;8.98;;;6.13;;
8183;SDS011;4133;48.752;9.088;2022-07-29T12:07:13;9.88;;;5.82;;
8183;SDS011;4133;48.752;9.088;2022-07-29T12:09:39;8.43;;;5.88;;
8183;SDS011;4133;48.752;9.088;2022-07-29T12:12:05;7.70;;;6.07;;
8183;SDS011;4133;48.752;9.088;2022-07-29T12:14:32;10.20;;;6.90;;
8183;SDS011;4133;48.752;9.088;2022-07-29T12:16:59;9.40;;;5.82;;
8183;SDS011;4133;48.752;9.088;2022-07-29T12:19:25;9.50;;;6.38;;
8183;SDS011;4133;48.752;9.088;2022-07-29T12:21:53;8.80;;;5.78;;
8183;SDS011;4133;48.752;9.088;2022-07-29T12:24:19;8.30;;;5.57;;
8183;SDS011;4133;48.752;9.088;2022-07-29T12:26:53;7.70;;;5.45;;
8183;SDS011;4133;48.752;9.088;2022-07-29T12:29:19;9.50;;;5.53;;
8183;SDS011;4133;48.752;9.088;2022-07-29T12:31:46;6.97;;;5.43;;
8183;SDS011;4133;48.752;9.088;2022-07-29T12:34:13;7.57;;;5.22;;
8183;SDS011;4133;48.752;9.088;2022-07-29T12:36:40;10.85;;;5.32;;
8183;SDS011;4133;48.752;9.088;2022-07-29T12:39:06;7.72;;;5.40;;
8183;SDS011;4133;48.752;9.088;2022-07-29T12:41:32;9.45;;;5.15;;
8183;SDS011;4133;48.752;9.088;2022-07-29T12:43:59;6.80;;;6.10;;
8183;SDS011;4133;48.752;9.088;2022-07-29T12:46:25;6.90;;;6.20;;
8183;SDS011;4133;48.752;9.088;2022-07-29T12:48:52;8.60;;;6.82;;
8183;SDS011;4133;48.752;9.088;2022-07-29T12:51:29;7.22;;;6.53;;
8183;SDS011;4133;48.752;9.088;2022-07-29T12:56:35;10.80;;;7.18;;
8183;SDS011;4133;48.752;9.088;2022-07-29T12:59:10;10.02;;;7.57;;
8183;SDS011;4133;48.752;9.088;2022-07-29T13:01:36;8.82;;;7.22;;
8183;SDS011;4133;48.752;9.088;2022-07-29T13:04:03;9.45;;;6.75;;
8183;SDS011;4133;48.752;9.088;2022-07-29T13:08:59;10.32;;;7.10;;
8183;SDS011;4133;48.752;9.088;2022-07-29T13:11:31;8.95;;;7.93;;
8183;SDS011;4133;48.752;9.088;2022-07-29T13:13:58;8.90;;;7.80;;
8183;SDS011;4133;48.752;9.088;2022-07-29T13:16:24;12.40;;;8.23;;
8183;SDS011;4133;48.752;9.088;2022-07-29T13:19:02;7.97;;;5.82;;
8183;SDS011;4133;48.752;9.088;2022-07-29T13:21:28;8.45;;;6.20;;
8183;SDS011;4133;48.752;9.088;2022-07-29T13:23:54;6.53;;;4.82;;
8183;SDS011;4133;48.752;9.088;2022-07-29T13:26:20;7.78;;;5.55;;
8183;SDS011;4133;48.752;9.088;2022-07-29T13:28:46;5.68;;;5.10;;
8183;SDS011;4133;48.752;9.088;2022-07-29T13:31:12;6.25;;;5.65;;
8183;SDS011;4133;48.752;9.088;2022-07-29T13:33:38;6.50;;;5.90;;
8183;SDS011;4133;48.752;9.088;2022-07-29T13:36:04;588.40;;;102.40;;
8183;SDS011;4133;48.752;9.088;2022-07-29T13:38:30;1999.90;;;999.90;;
8183;SDS011;4133;48.752;9.088;2022-07-29T13:40:56;1999.90;;;999.90;;
8183;SDS011;4133;48.752;9.088;2022-07-29T13:43:22;1999.90;;;999.90;;
8183;SDS011;4133;48.752;9.088;2022-07-29T13:45:48;1999.90;;;999.90;;
8183;SDS011;4133;48.752;9.088;2022-07-29T13:48:14;1999.90;;;999.90;;
8183;SDS011;4133;48.752;9.088;2022-07-29T13:50:41;801.30;;;218.90;;
8183;SDS011;4133;48.752;9.088;2022-07-29T13:53:08;8.05;;;7.05;;
8183;SDS011;4133;48.752;9.088;2022-07-29T13:55:34;238.07;;;16.58;;
8183;SDS011;4133;48.752;9.088;2022-07-29T13:58:00;7.40;;;6.68;;
8183;SDS011;4133;48.752;9.088;2022-07-29T14:00:26;7.53;;;6.75;;
8183;SDS011;4133;48.752;9.088;2022-07-29T14:02:52;10.43;;;7.22;;
8183;SDS011;4133;48.752;9.088;2022-07-29T14:05:18;7.35;;;6.43;;
8183;SDS011;4133;48.752;9.088;2022-07-29T14:07:44;401.63;;;37.78;;
8183;SDS011;4133;48.752;9.088;2022-07-29T14:10:10;7.65;;;6.95;;
8183;SDS011;4133;48.752;9.088;2022-07-29T14:12:37;9.75;;;7.07;;
8183;SDS011;4133;48.752;9.088;2022-07-29T14:15:03;62.00;;;10.80;;
8183;SDS011;4133;48.752;9.088;2022-07-29T14:17:29;197.93;;;19.55;;
8183;SDS011;4133;48.752;9.088;2022-07-29T14:19:55;10.85;;;8.50;;
8183;SDS011;4133;48.752;9.088;2022-07-29T14:22:21;10.80;;;8.57;;
8183;SDS011;4133;48.752;9.088;2022-07-29T14:24:47;9.55;;;8.55;;
8183;SDS011;4133;48.752;9.088;2022-07-29T14:27:13;10.35;;;8.20;;
8183;SDS011;4133;48.752;9.088;2022-07-29T14:29:39;11.15;;;8.05;;
8183;SDS011;4133;48.752;9.088;2022-07-29T14:32:06;8.90;;;8.05;;
8183;SDS011;4133;48.752;9.088;2022-07-29T14:34:32;10.68;;;7.60;;
8183;SDS011;4133;48.752;9.088;2022-07-29T14:36:58;10.38;;;8.45;;
8183;SDS011;4133;48.752;9.088;2022-07-29T14:39:24;10.20;;;7.85;;
8183;SDS011;4133;48.752;9.088;2022-07-29T14:41:50;7.95;;;7.15;;
8183;SDS011;4133;48.752;9.088;2022-07-29T14:44:16;10.10;;;7.30;;
8183;SDS011;4133;48.752;9.088;2022-07-29T14:46:43;9.38;;;7.25;;
8183;SDS011;4133;48.752;9.088;2022-07-29T14:49:09;8.02;;;7.30;;
8183;SDS011;4133;48.752;9.088;2022-07-29T14:51:35;10.20;;;8.65;;
8183;SDS011;4133;48.752;9.088;2022-07-29T14:54:01;1999.90;;;999.90;;
8183;SDS011;4133;48.752;9.088;2022-07-29T14:56:27;1999.90;;;999.90;;
8183;SDS011;4133;48.752;9.088;2022-07-29T14:58:55;1999.90;;;999.90;;
8183;SDS011;4133;48.752;9.088;2022-07-29T15:01:21;1999.90;;;999.90;;
8183;SDS011;4133;48.752;9.088;2022-07-29T15:03:47;1999.90;;;999.90;;
8183;SDS011;4133;48.752;9.088;2022-07-29T15:06:13;1999.90;;;999.90;;
8183;SDS011;4133;48.752;9.088;2022-07-29T15:08:38;1999.90;;;999.90;;
8183;SDS011;4133;48.752;9.088;2022-07-29T15:11:05;1999.90;;;999.90;;
8183;SDS011;4133;48.752;9.088;2022-07-29T15:13:31;1999.90;;;999.90;;
8183;SDS011;4133;48.752;9.088;2022-07-29T15:15:56;1999.90;;;999.90;;
8183;SDS011;4133;48.752;9.088;2022-07-29T15:18:23;1999.90;;;999.90;;
8183;SDS011;4133;48.752;9.088;2022-07-29T15:20:48;1999.90;;;999.90;;
8183;SDS011;4133;48.752;9.088;2022-07-29T15:23:14;841.90;;;371.67;;
8183;SDS011;4133;48.752;9.088;2022-07-29T15:25:40;1999.90;;;999.90;;
8183;SDS011;4133;48.752;9.088;2022-07-29T15:28:06;153.45;;;140.13;;
8183;SDS011;4133;48.752;9.088;2022-07-29T15:30:33;232.40;;;219.40;;
8183;SDS011;4133;48.752;9.088;2022-07-29T15:33:00;1999.90;;;999.90;;
8183;SDS011;4133;48.752;9.088;2022-07-29T15:35:26;1999.90;;;999.90;;
8183;SDS011;4133;48.752;9.088;2022-07-29T15:37:52;1999.90;;;999.90;;
8183;SDS011;4133;48.752;9.088;2022-07-29T15:40:18;1999.90;;;999.90;;
8183;SDS011;4133;48.752;9.088;2022-07-29T15:42:44;1999.90;;;999.90;;
8183;SDS011;4133;48.752;9.088;2022-07-29T15:45:10;1999.90;;;999.90;;